Porto Di Livorno — IFPU2 — position and weather

sailwx.info

Track history (hours):
 
Tides and Currents Weather Stations Pressure Air Temp Water Temp Dewpoint Dewpoint Depression Visibility Wind Speed Wind Dir Waves Ship Positions

Porto Di Livorno

Last reported at 2014-Jul-22 15:33 UTC. Time now 2014-Jul-23 03:20 UTC.
Position N 43°34' E 010°18'.

Length 24 m; draft 6.1 m.

Type: Tug. MMSI: 247194299.

Date/timePositionNaut miles runAvg speedWind from/ knotsBaromVisibWave heightAir tempDewpointWater temp
2014-Jul-22 15:33N 43°34' E 010°18'1 1.1
2014-Jul-22 14:33N 43°33' E 010°17'2 2.2
2014-Jul-22 13:33N 43°35' E 010°19'2 2.2
2014-Jul-22 12:33N 43°33' E 010°17'1 1.1
2014-Jul-22 11:33N 43°34' E 010°18'0 0.1
2014-Jul-22 10:33N 43°34' E 010°18'0 0.1
2014-Jul-22 09:33N 43°34' E 010°18'0 0.0
2014-Jul-22 08:33N 43°34' E 010°18'1 0.9
2014-Jul-22 07:33N 43°35' E 010°18'1 0.9
2014-Jul-22 06:33N 43°34' E 010°18'0 0.5
2014-Jul-22 05:33N 43°34' E 010°18'3 2.6
2014-Jul-22 04:33N 43°32' E 010°16'2 2.2
2014-Jul-22 03:33N 43°34' E 010°18'0 0.0
2014-Jul-22 02:33N 43°34' E 010°18'0 0.0
2014-Jul-22 01:33N 43°34' E 010°18'0 0.0
2014-Jul-22 00:33N 43°34' E 010°18'0 0.0
2014-Jul-21 23:33N 43°34' E 010°18'0 0.2
2014-Jul-21 22:33N 43°34' E 010°18'0 0.2
2014-Jul-21 21:33N 43°34' E 010°18'0 0.0
2014-Jul-21 20:33N 43°34' E 010°18'0 0.0
2014-Jul-21 20:18N 43°34' E 010°18'0 0.0
2014-Jul-21 19:33N 43°34' E 010°18'1 0.6
2014-Jul-21 18:33N 43°34' E 010°19'2 1.7
2014-Jul-21 17:33N 43°33' E 010°17'2 2.1
2014-Jul-21 16:33N 43°35' E 010°19'1 0.0
2014-Jul-20 16:28N 43°34' E 010°18'1 1.5
2014-Jul-20 15:33N 43°35' E 010°19'1 1.2
2014-Jul-20 14:33N 43°34' E 010°18'0 0.2
2014-Jul-20 13:33N 43°34' E 010°18'0 0.0
2014-Jul-20 12:33N 43°34' E 010°18'0 0.0
2014-Jul-20 11:33N 43°34' E 010°18'0 0.0
2014-Jul-20 10:33N 43°34' E 010°18'0 0.0
2014-Jul-20 09:33N 43°34' E 010°18'0 0.0
2014-Jul-20 08:33N 43°34' E 010°18'0 0.3
2014-Jul-20 07:33N 43°34' E 010°18'0 0.1
2014-Jul-20 06:33N 43°34' E 010°18'0 0.3
2014-Jul-20 05:33N 43°34' E 010°18'0 0.0
2014-Jul-20 04:33N 43°34' E 010°18'0 0.0
2014-Jul-20 03:33N 43°34' E 010°18'0 0.0
2014-Jul-20 02:33N 43°34' E 010°18'0 0.0
2014-Jul-20 01:33N 43°34' E 010°18'0 0.0
2014-Jul-20 00:33N 43°34' E 010°18'0 0.0
2014-Jul-19 23:33N 43°34' E 010°18'1 0.6
2014-Jul-19 22:33N 43°33' E 010°18'1 0.6
2014-Jul-19 21:33N 43°34' E 010°18'0 0.0
2014-Jul-19 20:33N 43°34' E 010°18'0 0.0
2014-Jul-19 19:33N 43°34' E 010°18'1 0.9
2014-Jul-19 18:33N 43°34' E 010°19'1 1.0
2014-Jul-19 17:33N 43°34' E 010°18'1 1.2
2014-Jul-19 16:33N 43°35' E 010°19'1 0.0
2014-Jul-18 15:34N 43°34' E 010°18'0 0.0
2014-Jul-18 14:34N 43°34' E 010°18'0 0.0
2014-Jul-18 13:34N 43°34' E 010°18'0 0.0
2014-Jul-18 12:33N 43°34' E 010°18'1 1.0
2014-Jul-18 11:33N 43°35' E 010°18'2 2.3
2014-Jul-18 10:34N 43°32' E 010°17'1 1.3
2014-Jul-18 09:33N 43°34' E 010°18'1 1.1
2014-Jul-18 08:33N 43°35' E 010°19'2 1.7
2014-Jul-18 07:33N 43°33' E 010°18'2 1.6
2014-Jul-18 06:34N 43°35' E 010°18'1 1.1
2014-Jul-18 05:33N 43°34' E 010°18'0 0.0
2014-Jul-18 04:33N 43°34' E 010°18'0 0.0
2014-Jul-18 03:33N 43°34' E 010°18'0 0.0
2014-Jul-18 02:34N 43°34' E 010°18'0 0.0
2014-Jul-18 01:33N 43°34' E 010°18'0 0.0
2014-Jul-18 00:34N 43°34' E 010°18'1 0.9
2014-Jul-17 23:33N 43°35' E 010°18'1 0.9
2014-Jul-17 22:34N 43°34' E 010°18'0 0.0
2014-Jul-17 21:33N 43°34' E 010°18'0 0.0
2014-Jul-17 20:33N 43°34' E 010°18'0 0.0
2014-Jul-17 19:33N 43°34' E 010°18'0 0.0
2014-Jul-17 18:33N 43°34' E 010°18'1 1.1
2014-Jul-17 17:33N 43°33' E 010°17'2 1.9
2014-Jul-17 16:34N 43°35' E 010°18'1 0.3
2014-Jul-17 13:33N 43°34' E 010°18'0 0.0
2014-Jul-17 12:33N 43°34' E 010°18'0 0.0
2014-Jul-17 11:33N 43°34' E 010°18'0 0.0
2014-Jul-17 09:33N 43°34' E 010°18'0 0.0
2014-Jul-17 08:33N 43°34' E 010°18'0 0.0
2014-Jul-17 07:33N 43°34' E 010°18'0 0.0
2014-Jul-17 06:33N 43°34' E 010°18'0 0.0
2014-Jul-17 05:33N 43°34' E 010°18'0 0.0
2014-Jul-16 15:33N 43°34' E 010°18'0 0.0
2014-Jul-16 14:33N 43°34' E 010°18'0 0.0
2014-Jul-16 13:33N 43°34' E 010°18'0 0.0
2014-Jul-16 12:33N 43°34' E 010°18'0 0.0
2014-Jul-16 11:33N 43°34' E 010°18'0 0.0
2014-Jul-16 10:33N 43°34' E 010°18'0 0.0
2014-Jul-16 09:33N 43°34' E 010°18'0 0.0
2014-Jul-16 08:33N 43°34' E 010°18'0 0.3
2014-Jul-16 07:33N 43°34' E 010°18'1 0.8
2014-Jul-16 06:33N 43°33' E 010°17'1 1.0
2014-Jul-16 05:33N 43°34' E 010°18'1 1.1
2014-Jul-16 04:33N 43°33' E 010°17'1 1.1
2014-Jul-16 03:33N 43°34' E 010°18'0 0.0
2014-Jul-16 02:33N 43°34' E 010°18'0 0.0
2014-Jul-16 01:33N 43°34' E 010°18'0 0.0
2014-Jul-16 00:33N 43°34' E 010°18'0 0.0
2014-Jul-15 23:33N 43°34' E 010°18'0 0.0
2014-Jul-15 22:33N 43°34' E 010°18'0 0.0
2014-Jul-15 21:33N 43°34' E 010°18'0 0.0
2014-Jul-15 20:33N 43°34' E 010°18'0 0.0
2014-Jul-15 19:33N 43°34' E 010°18'0 0.0
2014-Jul-15 18:33N 43°34' E 010°18'1 1.1
2014-Jul-15 17:33N 43°35' E 010°19'1 1.1
2014-Jul-15 16:33N 43°34' E 010°18'0 0.0
2014-Jul-15 08:33N 43°34' E 010°18'0 0.0
2014-Jul-15 07:33N 43°34' E 010°18'0 0.0
2014-Jul-15 06:33N 43°34' E 010°18'0 0.0
2014-Jul-15 05:33N 43°34' E 010°18'0 0.0
2014-Jul-14 05:09N 43°34' E 010°18'1 1.1
2014-Jul-14 04:32N 43°33' E 010°18'1 0.0
2014-Jul-12 16:30N 43°34' E 010°18'1 0.9
2014-Jul-12 15:34N 43°34' E 010°19'  
Track history (hours):
 
Tides and Currents Weather Stations Pressure Air Temp Water Temp Dewpoint Dewpoint Depression Visibility Wind Speed Wind Dir Waves Ship Positions

Porto Di Livorno

Last reported at 2014-Jul-22 15:33 UTC. Time now 2014-Jul-23 03:20 UTC.
Position N 43°34' E 010°18'.

Length 24 m; draft 6.1 m.

Type: Tug. MMSI: 247194299.

Date/timePositionNaut miles runAvg speedWind from/ knotsBaromVisibWave heightAir tempDewpointWater temp
2014-Jul-22 15:33N 43°34' E 010°18'1 1.1
2014-Jul-22 14:33N 43°33' E 010°17'2 2.2
2014-Jul-22 13:33N 43°35' E 010°19'2 2.2
2014-Jul-22 12:33N 43°33' E 010°17'1 1.1
2014-Jul-22 11:33N 43°34' E 010°18'0 0.1
2014-Jul-22 10:33N 43°34' E 010°18'0 0.1
2014-Jul-22 09:33N 43°34' E 010°18'0 0.0
2014-Jul-22 08:33N 43°34' E 010°18'1 0.9
2014-Jul-22 07:33N 43°35' E 010°18'1 0.9
2014-Jul-22 06:33N 43°34' E 010°18'0 0.5
2014-Jul-22 05:33N 43°34' E 010°18'3 2.6
2014-Jul-22 04:33N 43°32' E 010°16'2 2.2
2014-Jul-22 03:33N 43°34' E 010°18'0 0.0
2014-Jul-22 02:33N 43°34' E 010°18'0 0.0
2014-Jul-22 01:33N 43°34' E 010°18'0 0.0
2014-Jul-22 00:33N 43°34' E 010°18'0 0.0
2014-Jul-21 23:33N 43°34' E 010°18'0 0.2
2014-Jul-21 22:33N 43°34' E 010°18'0 0.2
2014-Jul-21 21:33N 43°34' E 010°18'0 0.0
2014-Jul-21 20:33N 43°34' E 010°18'0 0.0
2014-Jul-21 20:18N 43°34' E 010°18'0 0.0
2014-Jul-21 19:33N 43°34' E 010°18'1 0.6
2014-Jul-21 18:33N 43°34' E 010°19'2 1.7
2014-Jul-21 17:33N 43°33' E 010°17'2 2.1
2014-Jul-21 16:33N 43°35' E 010°19'1 0.0
2014-Jul-20 16:28N 43°34' E 010°18'1 1.5
2014-Jul-20 15:33N 43°35' E 010°19'1 1.2
2014-Jul-20 14:33N 43°34' E 010°18'0 0.2
2014-Jul-20 13:33N 43°34' E 010°18'0 0.0
2014-Jul-20 12:33N 43°34' E 010°18'0 0.0
2014-Jul-20 11:33N 43°34' E 010°18'0 0.0
2014-Jul-20 10:33N 43°34' E 010°18'0 0.0
2014-Jul-20 09:33N 43°34' E 010°18'0 0.0
2014-Jul-20 08:33N 43°34' E 010°18'0 0.3
2014-Jul-20 07:33N 43°34' E 010°18'0 0.1
2014-Jul-20 06:33N 43°34' E 010°18'0 0.3
2014-Jul-20 05:33N 43°34' E 010°18'0 0.0
2014-Jul-20 04:33N 43°34' E 010°18'0 0.0
2014-Jul-20 03:33N 43°34' E 010°18'0 0.0
2014-Jul-20 02:33N 43°34' E 010°18'0 0.0
2014-Jul-20 01:33N 43°34' E 010°18'0 0.0
2014-Jul-20 00:33N 43°34' E 010°18'0 0.0
2014-Jul-19 23:33N 43°34' E 010°18'1 0.6
2014-Jul-19 22:33N 43°33' E 010°18'1 0.6
2014-Jul-19 21:33N 43°34' E 010°18'0 0.0
2014-Jul-19 20:33N 43°34' E 010°18'0 0.0
2014-Jul-19 19:33N 43°34' E 010°18'1 0.9
2014-Jul-19 18:33N 43°34' E 010°19'1 1.0
2014-Jul-19 17:33N 43°34' E 010°18'1 1.2
2014-Jul-19 16:33N 43°35' E 010°19'1 0.0
2014-Jul-18 15:34N 43°34' E 010°18'0 0.0
2014-Jul-18 14:34N 43°34' E 010°18'0 0.0
2014-Jul-18 13:34N 43°34' E 010°18'0 0.0
2014-Jul-18 12:33N 43°34' E 010°18'1 1.0
2014-Jul-18 11:33N 43°35' E 010°18'2 2.3
2014-Jul-18 10:34N 43°32' E 010°17'1 1.3
2014-Jul-18 09:33N 43°34' E 010°18'1 1.1
2014-Jul-18 08:33N 43°35' E 010°19'2 1.7
2014-Jul-18 07:33N 43°33' E 010°18'2 1.6
2014-Jul-18 06:34N 43°35' E 010°18'1 1.1
2014-Jul-18 05:33N 43°34' E 010°18'0 0.0
2014-Jul-18 04:33N 43°34' E 010°18'0 0.0
2014-Jul-18 03:33N 43°34' E 010°18'0 0.0
2014-Jul-18 02:34N 43°34' E 010°18'0 0.0
2014-Jul-18 01:33N 43°34' E 010°18'0 0.0
2014-Jul-18 00:34N 43°34' E 010°18'1 0.9
2014-Jul-17 23:33N 43°35' E 010°18'1 0.9
2014-Jul-17 22:34N 43°34' E 010°18'0 0.0
2014-Jul-17 21:33N 43°34' E 010°18'0 0.0
2014-Jul-17 20:33N 43°34' E 010°18'0 0.0
2014-Jul-17 19:33N 43°34' E 010°18'0 0.0
2014-Jul-17 18:33N 43°34' E 010°18'1 1.1
2014-Jul-17 17:33N 43°33' E 010°17'2 1.9
2014-Jul-17 16:34N 43°35' E 010°18'1 0.3
2014-Jul-17 13:33N 43°34' E 010°18'0 0.0
2014-Jul-17 12:33N 43°34' E 010°18'0 0.0
2014-Jul-17 11:33N 43°34' E 010°18'0 0.0
2014-Jul-17 09:33N 43°34' E 010°18'0 0.0
2014-Jul-17 08:33N 43°34' E 010°18'0 0.0
2014-Jul-17 07:33N 43°34' E 010°18'0 0.0
2014-Jul-17 06:33N 43°34' E 010°18'0 0.0
2014-Jul-17 05:33N 43°34' E 010°18'0 0.0
2014-Jul-16 15:33N 43°34' E 010°18'0 0.0
2014-Jul-16 14:33N 43°34' E 010°18'0 0.0
2014-Jul-16 13:33N 43°34' E 010°18'0 0.0
2014-Jul-16 12:33N 43°34' E 010°18'0 0.0
2014-Jul-16 11:33N 43°34' E 010°18'0 0.0
2014-Jul-16 10:33N 43°34' E 010°18'0 0.0
2014-Jul-16 09:33N 43°34' E 010°18'0 0.0
2014-Jul-16 08:33N 43°34' E 010°18'0 0.3
2014-Jul-16 07:33N 43°34' E 010°18'1 0.8
2014-Jul-16 06:33N 43°33' E 010°17'1 1.0
2014-Jul-16 05:33N 43°34' E 010°18'1 1.1
2014-Jul-16 04:33N 43°33' E 010°17'1 1.1
2014-Jul-16 03:33N 43°34' E 010°18'0 0.0
2014-Jul-16 02:33N 43°34' E 010°18'0 0.0
2014-Jul-16 01:33N 43°34' E 010°18'0 0.0
2014-Jul-16 00:33N 43°34' E 010°18'0 0.0
2014-Jul-15 23:33N 43°34' E 010°18'0 0.0
2014-Jul-15 22:33N 43°34' E 010°18'0 0.0
2014-Jul-15 21:33N 43°34' E 010°18'0 0.0
2014-Jul-15 20:33N 43°34' E 010°18'0 0.0
2014-Jul-15 19:33N 43°34' E 010°18'0 0.0
2014-Jul-15 18:33N 43°34' E 010°18'1 1.1
2014-Jul-15 17:33N 43°35' E 010°19'1 1.1
2014-Jul-15 16:33N 43°34' E 010°18'0 0.0
2014-Jul-15 08:33N 43°34' E 010°18'0 0.0
2014-Jul-15 07:33N 43°34' E 010°18'0 0.0
2014-Jul-15 06:33N 43°34' E 010°18'0 0.0
2014-Jul-15 05:33N 43°34' E 010°18'0 0.0
2014-Jul-14 05:09N 43°34' E 010°18'1 1.1
2014-Jul-14 04:32N 43°33' E 010°18'1 0.0
2014-Jul-12 16:30N 43°34' E 010°18'1 0.9
2014-Jul-12 15:34N 43°34' E 010°19'  

Dump ship's entire track history